createdAt,value
2022-11-06T00:01:12.446Z,100108.50
2022-11-06T00:03:39.816Z,100106.59
2022-11-06T00:06:15.063Z,100101.88
2022-11-06T00:08:41.678Z,100106.06
2022-11-06T00:11:13.279Z,100107.13
2022-11-06T00:13:41.107Z,100109.63
2022-11-06T00:16:10.650Z,100103.28
2022-11-06T00:18:39.024Z,100103.97
2022-11-06T00:21:17.767Z,100102.19
2022-11-06T00:23:45.325Z,100104.94
2022-11-06T00:26:14.972Z,100100.38
2022-11-06T00:28:42.354Z,100105.72
2022-11-06T00:31:18.289Z,100097.19
2022-11-06T00:33:45.823Z,100109.59
2022-11-06T00:36:19.845Z,100107.00
2022-11-06T00:38:46.558Z,100108.66
2022-11-06T00:41:15.607Z,100113.09
2022-11-06T00:43:43.220Z,100113.03
2022-11-06T00:46:12.857Z,100109.75
2022-11-06T00:48:40.989Z,100105.28
2022-11-06T00:51:19.781Z,100106.94
2022-11-06T00:53:47.058Z,100103.50
2022-11-06T00:56:16.618Z,100105.22
2022-11-06T00:58:44.792Z,100102.00
2022-11-06T01:01:26.215Z,100103.94
2022-11-06T01:04:01.490Z,100104.63
2022-11-06T01:06:34.224Z,100104.31
2022-11-06T01:09:03.688Z,100112.25
2022-11-06T01:11:59.245Z,100115.00
2022-11-06T01:14:23.773Z,100110.50
2022-11-06T01:16:51.037Z,100108.81
2022-11-06T01:19:19.935Z,100115.16
2022-11-06T01:21:48.407Z,100117.81
2022-11-06T01:24:24.698Z,100115.16
2022-11-06T01:27:24.874Z,100119.00
2022-11-06T01:29:38.585Z,100111.06
2022-11-06T01:32:06.299Z,100116.38
2022-11-06T01:34:33.182Z,100126.09
2022-11-06T01:36:59.787Z,100114.03
2022-11-06T01:39:26.503Z,100118.31
2022-11-06T01:41:54.226Z,100114.16
2022-11-06T01:44:36.062Z,100111.38
2022-11-06T01:47:05.610Z,100114.75
2022-11-06T01:49:37.560Z,100112.81
2022-11-06T01:52:10.074Z,100111.25
2022-11-06T01:54:39.316Z,100117.97
2022-11-06T01:57:07.243Z,100114.50
2022-11-06T01:59:39.494Z,100120.63
2022-11-06T02:02:06.249Z,100117.75
2022-11-06T02:04:37.789Z,100124.09
2022-11-06T02:07:05.569Z,100120.16
2022-11-06T02:09:34.445Z,100116.38
2022-11-06T02:12:13.377Z,100122.28
2022-11-06T02:15:01.870Z,100122.50
2022-11-06T02:17:39.616Z,100123.59
2022-11-06T02:20:28.068Z,100124.22
2022-11-06T02:23:12.637Z,100125.16
2022-11-06T02:26:14.488Z,100140.28
2022-11-06T02:29:04.568Z,100137.75
2022-11-06T02:31:35.585Z,100142.91
2022-11-06T02:34:08.455Z,100146.97
2022-11-06T02:37:08.205Z,100135.63
2022-11-06T02:39:38.820Z,100143.69
2022-11-06T02:42:08.445Z,100146.59
2022-11-06T02:44:36.989Z,100148.31
2022-11-06T02:47:09.475Z,100156.03
2022-11-06T02:49:43.129Z,100154.41
2022-11-06T02:52:18.610Z,100158.56
2022-11-06T02:54:51.500Z,100159.25
2022-11-06T02:57:21.029Z,100161.34
2022-11-06T03:00:01.965Z,100160.13
2022-11-06T03:02:34.353Z,100172.31
2022-11-06T03:05:22.157Z,100169.56
2022-11-06T03:08:09.094Z,100176.47
2022-11-06T03:10:58.834Z,100177.50
2022-11-06T03:13:53.203Z,100178.69
2022-11-06T03:16:35.991Z,100175.69
2022-11-06T03:19:12.489Z,100181.66
2022-11-06T03:21:58.462Z,100178.53
2022-11-06T03:25:00.123Z,100188.31
2022-11-06T03:27:37.206Z,100187.41
2022-11-06T03:30:16.537Z,100191.88
2022-11-06T03:32:58.655Z,100190.94
2022-11-06T03:35:32.424Z,100192.44
2022-11-06T03:38:10.355Z,100195.28
2022-11-06T03:40:47.420Z,100205.97
2022-11-06T03:43:18.075Z,100194.53
2022-11-06T03:45:47.475Z,100204.06
2022-11-06T03:48:19.783Z,100208.50
2022-11-06T03:51:05.541Z,100217.41
2022-11-06T03:53:40.749Z,100217.50
2022-11-06T03:56:16.530Z,100217.44
2022-11-06T03:58:46.692Z,100208.97
2022-11-06T04:01:18.349Z,100209.22
2022-11-06T04:04:06.552Z,100211.59
2022-11-06T04:06:44.622Z,100210.94
2022-11-06T04:09:14.561Z,100212.28
2022-11-06T04:11:42.602Z,100201.28
2022-11-06T04:14:10.389Z,100207.56
2022-11-06T04:16:45.309Z,100202.94
2022-11-06T04:19:17.741Z,100204.88
2022-11-06T04:21:53.557Z,100204.97
2022-11-06T04:24:38.545Z,100196.34
2022-11-06T04:27:29.732Z,100207.63
2022-11-06T04:30:02.368Z,100203.28
2022-11-06T04:32:40.766Z,100205.22
2022-11-06T04:35:15.500Z,100204.31
2022-11-06T04:37:47.833Z,100201.53
2022-11-06T04:40:41.604Z,100211.13
2022-11-06T04:43:18.504Z,100212.78
2022-11-06T04:45:51.460Z,100205.09
2022-11-06T04:48:19.744Z,100209.31
2022-11-06T04:50:51.398Z,100207.41
2022-11-06T04:53:20.539Z,100207.56
2022-11-06T04:55:52.669Z,100214.72
2022-11-06T04:58:19.233Z,100213.53
2022-11-06T05:00:48.612Z,100216.13
2022-11-06T05:03:16.496Z,100222.06
2022-11-06T05:05:43.582Z,100215.00
2022-11-06T05:08:17.549Z,100224.22
2022-11-06T05:10:45.732Z,100217.97
2022-11-06T05:13:14.042Z,100225.78
2022-11-06T05:15:41.471Z,100225.22
2022-11-06T05:18:08.106Z,100233.81
2022-11-06T05:20:34.692Z,100229.22
2022-11-06T05:23:01.357Z,100232.56
2022-11-06T05:25:31.097Z,100233.31
2022-11-06T05:27:58.126Z,100222.75
2022-11-06T05:30:25.776Z,100226.22
2022-11-06T05:32:52.995Z,100230.63
2022-11-06T05:35:20.860Z,100239.41
2022-11-06T05:37:47.803Z,100235.31
2022-11-06T05:40:14.616Z,100248.53
2022-11-06T05:42:41.822Z,100235.75
2022-11-06T05:45:09.017Z,100250.44
2022-11-06T05:47:35.648Z,100241.84
2022-11-06T05:50:02.226Z,100258.56
2022-11-06T05:52:28.797Z,100252.13
2022-11-06T05:54:55.351Z,100260.03
2022-11-06T05:57:22.088Z,100261.72
2022-11-06T05:59:48.761Z,100263.41
2022-11-06T06:02:15.423Z,100274.94
2022-11-06T06:04:42.153Z,100271.47
2022-11-06T06:07:09.338Z,100278.28
2022-11-06T06:09:35.919Z,100288.97
2022-11-06T06:12:02.525Z,100287.97
2022-11-06T06:14:29.102Z,100294.09
2022-11-06T06:16:55.661Z,100294.66
2022-11-06T06:19:23.381Z,100302.44
2022-11-06T06:21:49.976Z,100300.59
2022-11-06T06:24:16.635Z,100308.75
2022-11-06T06:26:43.253Z,100303.53
2022-11-06T06:29:09.802Z,100306.97
2022-11-06T06:31:36.454Z,100309.75
2022-11-06T06:34:03.100Z,100315.75
2022-11-06T06:36:29.666Z,100324.50
2022-11-06T06:38:56.262Z,100321.63
2022-11-06T06:41:22.911Z,100329.84
2022-11-06T06:43:50.374Z,100320.75
2022-11-06T06:46:17.472Z,100326.66
2022-11-06T06:48:44.166Z,100326.41
2022-11-06T06:51:10.761Z,100330.88
2022-11-06T06:53:37.390Z,100329.28
2022-11-06T06:56:04.098Z,100336.13
2022-11-06T06:58:31.666Z,100332.72
2022-11-06T07:01:03.398Z,100335.50
2022-11-06T07:03:30.787Z,100334.88
2022-11-06T07:06:00.533Z,100340.97
2022-11-06T07:08:27.517Z,100342.81
2022-11-06T07:11:00.507Z,100348.78
2022-11-06T07:13:29.316Z,100341.38
2022-11-06T07:15:59.564Z,100347.28
2022-11-06T07:18:26.137Z,100350.75
2022-11-06T07:20:52.758Z,100356.00
2022-11-06T07:23:19.346Z,100355.84
2022-11-06T07:25:52.271Z,100363.84
2022-11-06T07:28:19.272Z,100362.09
2022-11-06T07:30:46.762Z,100365.41
2022-11-06T07:33:13.372Z,100358.13
2022-11-06T07:35:39.929Z,100359.78
2022-11-06T07:38:07.377Z,100364.75
2022-11-06T07:40:34.483Z,100366.13
2022-11-06T07:43:11.470Z,100361.72
2022-11-06T07:45:39.062Z,100364.41
2022-11-06T07:48:06.213Z,100358.59
2022-11-06T07:50:32.938Z,100374.06
2022-11-06T07:53:02.252Z,100366.13
2022-11-06T07:55:28.979Z,100362.50
2022-11-06T07:57:55.533Z,100360.03
2022-11-06T08:00:22.170Z,100366.00
2022-11-06T08:02:52.993Z,100368.53
2022-11-06T08:05:19.801Z,100366.56
2022-11-06T08:07:46.530Z,100361.63
2022-11-06T08:10:13.113Z,100364.97
2022-11-06T08:19:42.337Z,100378.84
2022-11-06T08:22:08.896Z,100374.19
2022-11-06T08:24:35.609Z,100371.66
2022-11-06T08:27:02.269Z,100370.88
2022-11-06T08:29:29.058Z,100373.34
2022-11-06T08:31:55.644Z,100377.63
2022-11-06T08:34:22.269Z,100378.47
2022-11-06T08:36:49.815Z,100378.38
2022-11-06T08:39:16.598Z,100383.63
2022-11-06T08:41:43.215Z,100387.84
2022-11-06T08:44:09.767Z,100378.22
2022-11-06T08:46:36.459Z,100385.53
2022-11-06T08:49:03.268Z,100381.22
2022-11-06T08:51:29.837Z,100380.47
2022-11-06T08:53:56.529Z,100387.00
2022-11-06T08:56:23.119Z,100385.72
2022-11-06T08:58:55.210Z,100390.91
2022-11-06T09:01:22.911Z,100387.41
2022-11-06T09:03:49.613Z,100397.19
2022-11-06T09:06:16.275Z,100393.66
2022-11-06T09:08:42.891Z,100392.66
2022-11-06T09:11:09.495Z,100391.72
2022-11-06T09:13:36.307Z,100390.94
2022-11-06T09:16:02.904Z,100387.41
2022-11-06T09:18:29.487Z,100394.81
2022-11-06T09:20:57.523Z,100391.66
2022-11-06T09:23:24.882Z,100383.94
2022-11-06T09:25:51.481Z,100384.66
2022-11-06T09:28:18.072Z,100379.38
2022-11-06T09:30:44.656Z,100387.25
2022-11-06T09:33:13.744Z,100378.94
2022-11-06T09:35:40.761Z,100382.50
2022-11-06T09:38:11.599Z,100378.06
2022-11-06T09:40:42.685Z,100372.06
2022-11-06T09:46:26.965Z,100365.25
2022-11-06T09:49:05.899Z,100376.19
2022-11-06T09:51:44.258Z,100378.94
2022-11-06T09:54:21.440Z,100375.38
2022-11-06T09:56:55.356Z,100368.88
2022-11-06T09:59:22.165Z,100368.09
2022-11-06T10:01:54.564Z,100362.88
2022-11-06T10:04:27.330Z,100361.72
2022-11-06T10:06:53.891Z,100363.50
2022-11-06T10:09:20.680Z,100357.28
2022-11-06T10:12:03.594Z,100364.72
2022-11-06T10:14:56.376Z,100367.72
2022-11-06T10:17:48.105Z,100366.25
2022-11-06T10:20:26.523Z,100362.69
2022-11-06T10:23:02.872Z,100355.06
2022-11-06T10:25:41.716Z,100353.94
2022-11-06T10:28:38.604Z,100353.16
2022-11-06T10:31:05.217Z,100353.16
2022-11-06T10:33:49.216Z,100348.19
2022-11-06T10:36:22.703Z,100341.28
2022-11-06T10:38:50.797Z,100343.00
2022-11-06T10:41:25.541Z,100338.53
2022-11-06T10:44:02.444Z,100340.28
2022-11-06T10:46:58.472Z,100338.03
2022-11-06T10:49:56.041Z,100341.78
2022-11-06T10:52:37.764Z,100338.03
2022-11-06T10:55:29.147Z,100332.91
2022-11-06T10:58:01.366Z,100335.75
2022-11-06T11:00:28.058Z,100327.41
2022-11-06T11:03:13.333Z,100328.09
2022-11-06T11:05:43.359Z,100331.53
2022-11-06T11:08:31.530Z,100330.47
2022-11-06T11:11:26.175Z,100337.09
2022-11-06T11:13:55.883Z,100335.44
2022-11-06T11:16:25.083Z,100333.94
2022-11-06T11:18:52.643Z,100335.81
2022-11-06T11:21:19.151Z,100333.03
2022-11-06T11:24:07.362Z,100329.19
2022-11-06T11:26:43.404Z,100329.47
2022-11-06T11:29:24.165Z,100323.31
2022-11-06T11:31:57.346Z,100326.34
2022-11-06T11:34:28.427Z,100317.88
2022-11-06T11:37:03.930Z,100313.81
2022-11-06T11:39:42.384Z,100308.75
2022-11-06T11:42:31.091Z,100316.97
2022-11-06T11:45:09.740Z,100321.09
2022-11-06T11:47:42.029Z,100313.97
2022-11-06T11:50:29.568Z,100312.84
2022-11-06T11:53:14.134Z,100317.06
2022-11-06T11:55:46.277Z,100318.84
2022-11-06T11:58:27.102Z,100316.25
2022-11-06T12:00:53.638Z,100313.88
2022-11-06T12:03:22.694Z,100311.44
2022-11-06T12:05:49.500Z,100305.78
2022-11-06T12:08:25.059Z,100303.97
2022-11-06T12:10:51.877Z,100309.63
2022-11-06T12:13:23.377Z,100307.22
2022-11-06T12:15:59.914Z,100307.47
2022-11-06T12:18:54.668Z,100306.59
2022-11-06T12:21:33.404Z,100303.47
2022-11-06T12:24:05.370Z,100306.81
2022-11-06T12:26:36.958Z,100301.00
2022-11-06T12:29:13.099Z,100300.06
2022-11-06T12:31:52.218Z,100300.28
2022-11-06T12:34:42.404Z,100302.25
2022-11-06T12:37:39.220Z,100309.16
2022-11-06T12:40:25.423Z,100317.13
2022-11-06T12:43:11.032Z,100315.25
2022-11-06T12:46:08.714Z,100316.91
2022-11-06T12:49:01.013Z,100318.28
2022-11-06T12:51:48.643Z,100313.69
2022-11-06T12:54:42.427Z,100311.88
2022-11-06T12:57:27.016Z,100316.41
2022-11-06T12:59:59.503Z,100321.13
2022-11-06T13:02:35.630Z,100316.31
2022-11-06T13:05:23.398Z,100320.50
2022-11-06T13:07:58.986Z,100328.91
2022-11-06T13:10:40.868Z,100323.69
2022-11-06T13:13:43.269Z,100325.94
2022-11-06T13:16:12.879Z,100319.75
2022-11-06T13:18:52.895Z,100321.72
2022-11-06T13:21:52.038Z,100323.47
2022-11-06T13:24:37.474Z,100315.31
2022-11-06T13:27:26.190Z,100316.66
2022-11-06T13:29:59.457Z,100322.94
2022-11-06T13:32:30.013Z,100325.22
2022-11-06T13:34:57.137Z,100322.63
2022-11-06T13:37:38.188Z,100315.66
2022-11-06T13:40:25.468Z,100323.19
2022-11-06T13:43:06.817Z,100313.13
2022-11-06T13:46:02.072Z,100316.69
2022-11-06T13:48:53.173Z,100319.88
2022-11-06T13:51:43.835Z,100308.50
2022-11-06T13:54:29.137Z,100316.34
2022-11-06T13:57:04.612Z,100304.00
2022-11-06T14:00:01.585Z,100304.63
2022-11-06T14:02:34.363Z,100297.50
2022-11-06T14:05:01.067Z,100297.97
2022-11-06T14:07:30.793Z,100285.25
2022-11-06T14:09:58.181Z,100292.41
2022-11-06T14:12:24.960Z,100294.66
2022-11-06T14:15:20.583Z,100289.16
2022-11-06T14:18:01.437Z,100289.03
2022-11-06T14:20:36.850Z,100286.84
2022-11-06T14:23:31.053Z,100292.16
2022-11-06T14:26:03.944Z,100289.16
2022-11-06T14:28:50.714Z,100294.72
2022-11-06T14:31:55.945Z,100285.94
2022-11-06T14:34:33.820Z,100286.28
2022-11-06T14:37:30.847Z,100289.56
2022-11-06T14:39:57.762Z,100290.63
2022-11-06T14:42:27.020Z,100286.97
2022-11-06T14:45:08.752Z,100283.47
2022-11-06T14:47:36.004Z,100296.06
2022-11-06T14:50:25.634Z,100298.13
2022-11-06T14:53:02.302Z,100296.84
2022-11-06T14:55:43.169Z,100304.59
2022-11-06T14:58:23.468Z,100296.00
2022-11-06T15:00:54.840Z,100311.22
2022-11-06T15:03:44.640Z,100316.81
2022-11-06T15:06:17.027Z,100323.81
2022-11-06T15:08:46.284Z,100323.13
2022-11-06T15:11:31.099Z,100319.84
2022-11-06T15:14:03.490Z,100322.94
2022-11-06T15:17:04.482Z,100320.84
2022-11-06T15:19:39.818Z,100322.88
2022-11-06T15:22:22.175Z,100321.88
2022-11-06T15:25:00.012Z,100321.69
2022-11-06T15:27:43.057Z,100318.06
2022-11-06T15:30:16.713Z,100316.28
2022-11-06T15:32:45.764Z,100329.28
2022-11-06T15:35:24.820Z,100326.28
2022-11-06T15:38:11.017Z,100326.66
2022-11-06T15:40:39.542Z,100322.50
2022-11-06T15:43:12.693Z,100317.44
2022-11-06T15:45:39.569Z,100322.66
2022-11-06T15:48:19.960Z,100316.53
2022-11-06T15:50:46.568Z,100317.34
2022-11-06T15:53:34.761Z,100331.13
2022-11-06T15:56:08.431Z,100326.81
2022-11-06T15:58:37.548Z,100323.56
2022-11-06T16:01:07.127Z,100325.56
2022-11-06T16:03:45.023Z,100322.16
2022-11-06T16:06:11.747Z,100330.22
2022-11-06T16:08:38.909Z,100328.59
2022-11-06T16:11:13.085Z,100326.97
2022-11-06T16:13:41.685Z,100321.78
2022-11-06T16:16:28.137Z,100327.53
2022-11-06T16:18:54.936Z,100317.66
2022-11-06T16:21:24.421Z,100324.38
2022-11-06T16:23:55.190Z,100319.28
2022-11-06T16:26:27.516Z,100320.50
2022-11-06T16:28:56.255Z,100324.25
2022-11-06T16:31:26.259Z,100323.16
2022-11-06T16:34:00.084Z,100325.97
2022-11-06T16:36:29.896Z,100329.44
2022-11-06T16:39:17.886Z,100332.19
2022-11-06T16:42:09.572Z,100327.78
2022-11-06T16:44:36.107Z,100333.81
2022-11-06T16:47:05.458Z,100329.72
2022-11-06T16:49:34.870Z,100324.59
2022-11-06T16:52:03.338Z,100340.47
2022-11-06T16:54:29.956Z,100331.69
2022-11-06T16:57:08.910Z,100330.94
2022-11-06T16:59:35.879Z,100318.06
2022-11-06T17:02:05.132Z,100330.19
2022-11-06T17:04:31.853Z,100319.66
2022-11-06T17:06:58.683Z,100333.66
2022-11-06T17:09:31.165Z,100333.88
2022-11-06T17:11:59.864Z,100336.72
2022-11-06T17:14:26.741Z,100325.31
2022-11-06T17:16:56.008Z,100337.97
2022-11-06T17:19:22.592Z,100339.84
2022-11-06T17:21:50.326Z,100332.66
2022-11-06T17:27:05.769Z,100347.94
2022-11-06T17:29:33.071Z,100355.91
2022-11-06T17:31:59.644Z,100357.69
2022-11-06T17:34:26.258Z,100348.00
2022-11-06T17:36:52.904Z,100352.31
2022-11-06T17:39:19.489Z,100356.03
2022-11-06T17:41:46.114Z,100359.94
2022-11-06T17:44:12.727Z,100358.97
2022-11-06T17:46:42.447Z,100356.63
2022-11-06T17:49:15.813Z,100363.59
2022-11-06T17:51:46.195Z,100358.59
2022-11-06T17:54:13.430Z,100354.63
2022-11-06T17:56:40.154Z,100346.63
2022-11-06T17:59:08.877Z,100346.28
2022-11-06T18:01:35.770Z,100345.97
2022-11-06T18:04:02.774Z,100335.00
2022-11-06T18:06:29.373Z,100341.22
2022-11-06T18:09:00.991Z,100349.03
2022-11-06T18:11:28.232Z,100354.31
2022-11-06T18:13:55.423Z,100360.44
2022-11-06T18:16:25.226Z,100354.31
2022-11-06T18:18:51.878Z,100358.94
2022-11-06T18:21:18.479Z,100368.53
2022-11-06T18:23:45.071Z,100362.44
2022-11-06T18:26:12.257Z,100374.00
2022-11-06T18:28:39.536Z,100359.09
2022-11-06T18:31:06.595Z,100355.44
2022-11-06T18:33:34.799Z,100361.75
2022-11-06T18:36:02.485Z,100365.47
2022-11-06T18:38:29.452Z,100362.84
2022-11-06T18:40:56.445Z,100369.88
2022-11-06T18:43:23.812Z,100375.06
2022-11-06T18:45:51.001Z,100375.91
2022-11-06T18:48:21.312Z,100384.66
2022-11-06T18:50:48.616Z,100382.72
2022-11-06T18:53:15.426Z,100380.19
2022-11-06T18:55:45.672Z,100385.69
2022-11-06T18:58:13.077Z,100385.78
2022-11-06T19:00:40.144Z,100381.53
2022-11-06T19:03:06.816Z,100384.00
2022-11-06T19:05:33.443Z,100389.31
2022-11-06T19:08:00.845Z,100381.25
2022-11-06T19:10:27.570Z,100383.13
2022-11-06T19:12:57.300Z,100384.06
2022-11-06T19:15:26.027Z,100383.94
2022-11-06T19:17:53.893Z,100385.00
2022-11-06T19:20:21.055Z,100392.84
2022-11-06T19:22:51.846Z,100388.38
2022-11-06T19:25:19.505Z,100377.84
2022-11-06T19:27:46.947Z,100377.97
2022-11-06T19:30:15.006Z,100380.56
2022-11-06T19:32:41.916Z,100384.94
2022-11-06T19:35:09.004Z,100390.19
2022-11-06T19:37:35.647Z,100383.16
2022-11-06T19:40:05.922Z,100383.00
2022-11-06T19:42:33.439Z,100388.63
2022-11-06T19:45:00.092Z,100386.75
2022-11-06T19:47:26.700Z,100374.47
2022-11-06T19:49:53.568Z,100380.63
2022-11-06T19:52:43.207Z,100371.03
2022-11-06T19:55:26.674Z,100388.47
2022-11-06T19:57:53.544Z,100374.50
2022-11-06T20:00:20.226Z,100382.44
2022-11-06T20:02:49.236Z,100379.97
2022-11-06T20:05:16.295Z,100375.72
2022-11-06T20:07:42.976Z,100379.91
2022-11-06T20:10:09.729Z,100374.84
2022-11-06T20:12:36.346Z,100375.69
2022-11-06T20:15:03.191Z,100369.41
2022-11-06T20:17:29.766Z,100372.28
2022-11-06T20:19:56.377Z,100372.34
2022-11-06T20:22:22.942Z,100372.97
2022-11-06T20:24:49.574Z,100367.13
2022-11-06T20:27:16.152Z,100369.84
2022-11-06T20:29:42.756Z,100355.09
2022-11-06T20:32:09.829Z,100364.13
2022-11-06T20:34:36.490Z,100379.69
2022-11-06T20:37:03.098Z,100379.88
2022-11-06T20:39:29.750Z,100378.47
2022-11-06T20:41:56.346Z,100385.75
2022-11-06T20:44:23.015Z,100390.72
2022-11-06T20:46:49.655Z,100393.16
2022-11-06T20:49:16.355Z,100406.41
2022-11-06T20:52:11.591Z,100411.63
2022-11-06T20:54:29.659Z,100409.22
2022-11-06T20:56:56.294Z,100416.13
2022-11-06T20:59:22.877Z,100420.44
2022-11-06T21:01:49.585Z,100421.44
2022-11-06T21:04:16.455Z,100424.03
2022-11-06T21:06:43.221Z,100422.41
2022-11-06T21:09:09.832Z,100424.22
2022-11-06T21:11:36.583Z,100421.72
2022-11-06T21:14:03.316Z,100420.56
2022-11-06T21:16:32.870Z,100410.38
2022-11-06T21:19:00.906Z,100407.16
2022-11-06T21:21:30.403Z,100411.59
2022-11-06T21:23:56.999Z,100404.63
2022-11-06T21:26:27.268Z,100409.00
2022-11-06T21:28:54.075Z,100416.75
2022-11-06T21:31:23.632Z,100414.94
2022-11-06T21:33:51.790Z,100409.81
2022-11-06T21:36:21.630Z,100409.00
2022-11-06T21:38:48.545Z,100415.09
2022-11-06T21:41:18.505Z,100410.72
2022-11-06T21:43:45.117Z,100415.13
2022-11-06T21:46:12.840Z,100412.66
2022-11-06T21:48:46.490Z,100414.41
2022-11-06T21:51:18.914Z,100409.34
2022-11-06T21:53:46.414Z,100407.66
2022-11-06T21:56:14.056Z,100407.63
2022-11-06T21:58:40.770Z,100411.28
2022-11-06T22:01:07.788Z,100418.19
2022-11-06T22:03:34.993Z,100414.75
2022-11-06T22:06:14.001Z,100413.81
2022-11-06T22:08:43.427Z,100424.31
2022-11-06T22:11:17.012Z,100420.72
2022-11-06T22:13:44.683Z,100431.22
2022-11-06T22:16:13.268Z,100427.75
2022-11-06T22:18:40.526Z,100422.44
2022-11-06T22:21:18.248Z,100426.72
2022-11-06T22:23:45.306Z,100423.25
2022-11-06T22:26:17.595Z,100427.47
2022-11-06T22:28:44.710Z,100428.47
2022-11-06T22:31:11.850Z,100435.53
2022-11-06T22:33:39.054Z,100437.34
2022-11-06T22:36:05.960Z,100425.03
2022-11-06T22:38:33.108Z,100428.59
2022-11-06T22:41:02.060Z,100424.31
2022-11-06T22:43:30.080Z,100430.44
2022-11-06T22:46:01.576Z,100426.13
2022-11-06T22:48:29.882Z,100421.75
2022-11-06T22:50:57.087Z,100427.84
2022-11-06T22:53:23.658Z,100424.44
2022-11-06T22:55:55.109Z,100421.78
2022-11-06T22:58:21.873Z,100425.22
2022-11-06T23:00:56.709Z,100420.94
2022-11-06T23:03:24.798Z,100428.78
2022-11-06T23:05:51.520Z,100427.06
2022-11-06T23:08:18.572Z,100426.22
2022-11-06T23:10:45.689Z,100428.91
2022-11-06T23:13:12.607Z,100428.06
2022-11-06T23:15:40.485Z,100425.47
2022-11-06T23:18:07.149Z,100431.63
2022-11-06T23:20:34.662Z,100431.59
2022-11-06T23:23:02.488Z,100423.75
2022-11-06T23:25:30.100Z,100421.06
2022-11-06T23:27:58.225Z,100424.72
2022-11-06T23:30:24.909Z,100421.19
2022-11-06T23:32:51.719Z,100425.59
2022-11-06T23:35:19.543Z,100416.84
2022-11-06T23:37:48.895Z,100429.06
2022-11-06T23:40:15.480Z,100429.00
2022-11-06T23:42:42.112Z,100426.41
2022-11-06T23:45:10.974Z,100422.06
2022-11-06T23:47:37.939Z,100432.59
2022-11-06T23:50:05.651Z,100432.53
2022-11-06T23:52:32.594Z,100434.28
2022-11-06T23:54:59.246Z,100434.25
2022-11-06T23:57:25.829Z,100437.66
2022-11-06T23:59:52.437Z,100439.47
